Time;durP1;ratioP1;P1;durP2;ratioP2;P2;SDS_P1;SDS_P2;PMS_P1;PMS_P2;Temp;Humidity;BMP_temperature;BMP_pressure;BME280_temperature;BME280_humidity;BME280_pressure;Samples;Min_cycle;Max_cycle;Signal;HPM_P1;HPM_P2
2023/12/18 00:01:56;;;;;;;7.85;4.65;;;;;;;;;;5260599;28;20200;-86
2023/12/18 00:04:28;;;;;;;7.45;5.28;;;;;;;;;;5260362;28;20025;-85
2023/12/18 00:06:59;;;;;;;10.18;5.22;;;;;;;;;;5259856;28;20479;-85
2023/12/18 00:09:30;;;;;;;7.00;4.96;;;;;;;;;;5260825;28;20031;-85
2023/12/18 00:12:01;;;;;;;8.70;5.68;;;;;;;;;;5261050;28;20028;-86
2023/12/18 00:14:32;;;;;;;9.30;5.60;;;;;;;;;;5263741;28;20021;-85
2023/12/18 00:17:03;;;;;;;7.70;5.05;;;;;;;;;;5264703;28;20094;-85
2023/12/18 00:19:35;;;;;;;7.38;5.43;;;;;;;;;;5264786;28;20024;-86
2023/12/18 00:22:06;;;;;;;10.05;5.90;;;;;;;;;;5264618;28;20020;-84
2023/12/18 00:24:37;;;;;;;8.52;5.18;;;;;;;;;;5265498;28;20025;-85
2023/12/18 00:27:08;;;;;;;9.88;5.47;;;;;;;;;;5263204;28;20063;-84
2023/12/18 00:29:39;;;;;;;10.45;6.28;;;;;;;;;;5264984;28;20052;-85
2023/12/18 00:32:11;;;;;;;8.43;5.60;;;;;;;;;;5265001;28;20021;-84
2023/12/18 00:34:42;;;;;;;9.70;6.28;;;;;;;;;;5264212;28;20017;-85
2023/12/18 00:37:13;;;;;;;7.28;5.55;;;;;;;;;;5265458;28;20507;-84
2023/12/18 00:39:44;;;;;;;8.68;5.90;;;;;;;;;;5264575;28;20053;-83
2023/12/18 00:42:15;;;;;;;10.38;7.28;;;;;;;;;;5264002;28;20440;-83
2023/12/18 00:44:47;;;;;;;11.32;7.38;;;;;;;;;;5264880;28;20044;-83
2023/12/18 00:47:18;;;;;;;9.96;6.38;;;;;;;;;;5264202;28;20032;-84
2023/12/18 00:49:49;;;;;;;10.13;6.60;;;;;;;;;;5264097;28;20074;-84
2023/12/18 00:52:20;;;;;;;9.63;6.65;;;;;;;;;;5263886;28;20100;-84
2023/12/18 00:54:51;;;;;;;13.60;7.28;;;;;;;;;;5264534;28;20487;-83
2023/12/18 00:57:23;;;;;;;8.68;6.63;;;;;;;;;;5263032;28;20486;-85
2023/12/18 00:59:54;;;;;;;11.73;7.32;;;;;;;;;;5264466;28;20044;-83
2023/12/18 01:02:25;;;;;;;13.38;7.43;;;;;;;;;;5262518;28;20095;-84
2023/12/18 01:04:56;;;;;;;12.18;7.00;;;;;;;;;;5263826;28;20017;-84
2023/12/18 01:07:31;;;;;;;15.73;8.05;;;;;;;;;;5264795;28;20032;-83
2023/12/18 01:10:02;;;;;;;11.10;7.00;;;;;;;;;;5263311;28;20020;-84
2023/12/18 01:12:33;;;;;;;11.52;7.00;;;;;;;;;;5263397;28;20032;-84
2023/12/18 01:15:04;;;;;;;15.70;8.63;;;;;;;;;;5263748;28;20028;-84
2023/12/18 01:17:36;;;;;;;15.65;8.30;;;;;;;;;;5263564;28;20549;-84
2023/12/18 01:20:07;;;;;;;12.82;8.20;;;;;;;;;;5263737;28;20013;-84
2023/12/18 01:22:38;;;;;;;13.45;8.48;;;;;;;;;;5263585;28;20032;-83
2023/12/18 01:25:09;;;;;;;11.65;7.45;;;;;;;;;;5261207;28;20099;-84
2023/12/18 01:27:41;;;;;;;13.48;8.30;;;;;;;;;;5263372;28;20135;-85
2023/12/18 01:30:12;;;;;;;13.98;8.02;;;;;;;;;;5263139;28;20059;-84
2023/12/18 01:32:44;;;;;;;13.60;8.20;;;;;;;;;;5263448;28;20033;-84
2023/12/18 01:35:15;;;;;;;13.65;8.93;;;;;;;;;;5265905;28;20024;-84
2023/12/18 01:37:46;;;;;;;14.05;8.63;;;;;;;;;;5266892;28;20036;-84
2023/12/18 01:40:18;;;;;;;13.68;9.07;;;;;;;;;;5266878;28;20078;-83
2023/12/18 01:42:49;;;;;;;13.77;8.52;;;;;;;;;;5267435;28;20486;-85
2023/12/18 01:45:20;;;;;;;12.15;9.30;;;;;;;;;;5266608;28;20021;-84
2023/12/18 01:47:51;;;;;;;16.45;8.73;;;;;;;;;;5266900;28;20096;-83
2023/12/18 01:50:23;;;;;;;16.35;9.02;;;;;;;;;;5264703;28;20467;-84
2023/12/18 01:52:54;;;;;;;13.75;8.77;;;;;;;;;;5262676;28;20023;-83
2023/12/18 01:55:25;;;;;;;11.63;8.45;;;;;;;;;;5262514;28;20071;-84
2023/12/18 01:57:56;;;;;;;14.32;9.00;;;;;;;;;;5262370;28;20040;-85
2023/12/18 02:00:27;;;;;;;12.85;9.38;;;;;;;;;;5261737;28;20028;-83
2023/12/18 02:03:01;;;;;;;11.82;8.88;;;;;;;;;;5263276;28;20044;-85
2023/12/18 02:05:32;;;;;;;15.55;9.35;;;;;;;;;;5261982;28;20025;-84
2023/12/18 02:08:04;;;;;;;13.00;9.07;;;;;;;;;;5262497;28;20036;-83
2023/12/18 02:10:36;;;;;;;14.68;8.95;;;;;;;;;;5262572;28;20021;-83
2023/12/18 02:13:08;;;;;;;15.02;9.20;;;;;;;;;;5262536;28;20032;-84
2023/12/18 02:15:39;;;;;;;13.50;9.00;;;;;;;;;;5263408;28;20029;-83
2023/12/18 02:18:10;;;;;;;11.05;8.88;;;;;;;;;;5262527;28;20557;-84
2023/12/18 02:20:42;;;;;;;15.02;9.35;;;;;;;;;;5261393;28;20017;-85
2023/12/18 02:23:13;;;;;;;14.57;9.25;;;;;;;;;;5262052;28;20029;-84
2023/12/18 02:25:44;;;;;;;12.65;9.00;;;;;;;;;;5261436;28;20053;-84
2023/12/18 02:28:16;;;;;;;14.73;8.77;;;;;;;;;;5262285;28;20025;-84
2023/12/18 02:30:48;;;;;;;16.63;9.25;;;;;;;;;;5262188;28;20016;-84
2023/12/18 02:33:19;;;;;;;14.57;8.75;;;;;;;;;;5261615;28;20032;-84
2023/12/18 02:35:50;;;;;;;13.48;8.40;;;;;;;;;;5261334;28;20017;-85
2023/12/18 02:38:21;;;;;;;15.82;9.80;;;;;;;;;;5261305;28;20043;-86
2023/12/18 02:40:52;;;;;;;13.75;8.48;;;;;;;;;;5261253;28;20033;-85
2023/12/18 02:43:23;;;;;;;12.12;8.70;;;;;;;;;;5261439;28;20028;-85
2023/12/18 02:45:55;;;;;;;17.00;9.05;;;;;;;;;;5262582;28;20024;-85
2023/12/18 02:48:26;;;;;;;14.10;8.70;;;;;;;;;;5260776;28;20080;-84
2023/12/18 02:50:57;;;;;;;13.23;9.50;;;;;;;;;;5262189;28;20537;-86
2023/12/18 02:53:28;;;;;;;12.15;8.70;;;;;;;;;;5261705;28;20088;-85
2023/12/18 02:55:59;;;;;;;11.07;8.35;;;;;;;;;;5260299;28;20025;-85
2023/12/18 02:58:31;;;;;;;12.00;9.27;;;;;;;;;;5261455;28;20476;-85
2023/12/18 03:01:02;;;;;;;12.10;8.88;;;;;;;;;;5261655;28;20024;-85
2023/12/18 03:03:33;;;;;;;12.50;9.93;;;;;;;;;;5261534;28;20027;-84
2023/12/18 03:06:04;;;;;;;13.10;9.50;;;;;;;;;;5261319;28;20021;-84
2023/12/18 03:08:35;;;;;;;14.25;9.85;;;;;;;;;;5260772;28;20024;-85
2023/12/18 03:11:06;;;;;;;13.32;10.07;;;;;;;;;;5260917;28;20484;-85
2023/12/18 03:13:38;;;;;;;14.05;9.35;;;;;;;;;;5260987;28;20384;-84
2023/12/18 03:16:09;;;;;;;13.55;9.60;;;;;;;;;;5260635;28;20048;-84
2023/12/18 03:18:40;;;;;;;20.20;9.82;;;;;;;;;;5261522;28;20025;-84
2023/12/18 03:21:11;;;;;;;13.35;9.35;;;;;;;;;;5261448;28;20032;-84
2023/12/18 03:23:43;;;;;;;17.00;10.30;;;;;;;;;;5260494;28;20108;-84
2023/12/18 03:26:14;;;;;;;18.48;10.30;;;;;;;;;;5261012;28;20561;-84
2023/12/18 03:28:45;;;;;;;12.88;9.32;;;;;;;;;;5261585;28;20021;-84
2023/12/18 03:31:16;;;;;;;16.60;10.25;;;;;;;;;;5260690;28;20044;-84
2023/12/18 03:33:47;;;;;;;16.33;9.82;;;;;;;;;;5260721;28;20036;-85
2023/12/18 03:36:19;;;;;;;15.73;11.20;;;;;;;;;;5260947;28;20024;-84
2023/12/18 03:38:50;;;;;;;17.65;10.38;;;;;;;;;;5259867;28;20056;-85
2023/12/18 03:41:21;;;;;;;15.30;10.56;;;;;;;;;;5261428;28;20475;-84
2023/12/18 03:43:52;;;;;;;16.67;10.98;;;;;;;;;;5261747;28;20408;-84
2023/12/18 03:46:23;;;;;;;17.00;11.32;;;;;;;;;;5261009;28;20508;-85
2023/12/18 03:48:55;;;;;;;16.50;10.63;;;;;;;;;;5264538;28;20057;-84
2023/12/18 03:51:26;;;;;;;13.55;10.35;;;;;;;;;;5264089;28;20494;-85
2023/12/18 03:53:57;;;;;;;14.68;10.35;;;;;;;;;;5265179;28;20051;-85
2023/12/18 03:56:28;;;;;;;17.95;10.82;;;;;;;;;;5264694;28;20021;-86
2023/12/18 03:58:59;;;;;;;14.20;10.75;;;;;;;;;;5265149;28;20044;-85
2023/12/18 04:01:34;;;;;;;15.75;10.85;;;;;;;;;;5266084;28;20115;-84
2023/12/18 04:04:06;;;;;;;18.52;10.43;;;;;;;;;;5265106;28;20047;-86
2023/12/18 04:06:41;;;;;;;18.02;12.20;;;;;;;;;;5265504;28;20028;-83
2023/12/18 04:09:12;;;;;;;16.15;10.43;;;;;;;;;;5264848;28;20017;-85
2023/12/18 04:11:43;;;;;;;19.08;12.10;;;;;;;;;;5264732;28;20104;-85
2023/12/18 04:14:14;;;;;;;14.63;10.65;;;;;;;;;;5263676;28;20075;-84
2023/12/18 04:16:45;;;;;;;17.13;11.50;;;;;;;;;;5264805;28;20127;-84
2023/12/18 04:19:16;;;;;;;18.90;11.02;;;;;;;;;;5263849;28;20025;-85
2023/12/18 04:21:48;;;;;;;16.42;9.93;;;;;;;;;;5264970;28;20049;-84
2023/12/18 04:24:19;;;;;;;17.20;11.85;;;;;;;;;;5264840;28;20025;-84
2023/12/18 04:26:50;;;;;;;17.23;10.90;;;;;;;;;;5263510;28;20507;-85
2023/12/18 04:29:21;;;;;;;18.52;10.35;;;;;;;;;;5264274;28;20410;-85
2023/12/18 04:31:52;;;;;;;17.55;11.48;;;;;;;;;;5264490;28;20025;-85
2023/12/18 04:34:24;;;;;;;20.13;12.15;;;;;;;;;;5263435;28;20032;-84
2023/12/18 04:36:55;;;;;;;14.55;10.85;;;;;;;;;;5264116;28;20036;-85
2023/12/18 04:39:26;;;;;;;13.98;10.30;;;;;;;;;;5263518;28;20045;-85
2023/12/18 04:41:57;;;;;;;15.98;11.18;;;;;;;;;;5263332;28;20527;-84
2023/12/18 04:44:28;;;;;;;18.92;10.73;;;;;;;;;;5264006;28;20036;-85
2023/12/18 04:47:01;;;;;;;19.35;10.45;;;;;;;;;;5263728;28;20033;-85
2023/12/18 04:49:32;;;;;;;18.30;11.18;;;;;;;;;;5262953;28;20483;-85
2023/12/18 04:52:03;;;;;;;18.73;11.13;;;;;;;;;;5264052;28;20040;-85
2023/12/18 04:54:34;;;;;;;18.88;11.25;;;;;;;;;;5263090;28;20024;-85
2023/12/18 04:57:06;;;;;;;19.00;10.88;;;;;;;;;;5263935;28;20036;-85
2023/12/18 04:59:37;;;;;;;15.95;10.60;;;;;;;;;;5262624;28;20013;-85
2023/12/18 05:02:08;;;;;;;21.02;12.25;;;;;;;;;;5262817;28;20491;-84
2023/12/18 05:04:39;;;;;;;22.65;11.95;;;;;;;;;;5263716;28;20029;-85
2023/12/18 05:07:12;;;;;;;19.40;10.38;;;;;;;;;;5263593;28;20070;-84
2023/12/18 05:09:43;;;;;;;17.00;11.70;;;;;;;;;;5262689;28;20031;-86
2023/12/18 05:12:14;;;;;;;15.75;10.70;;;;;;;;;;5263341;28;20088;-85
2023/12/18 05:14:47;;;;;;;19.63;11.88;;;;;;;;;;5262963;28;20032;-84
2023/12/18 05:17:18;;;;;;;18.45;11.57;;;;;;;;;;5262627;28;20036;-85
2023/12/18 05:19:49;;;;;;;22.42;12.52;;;;;;;;;;5263344;28;20025;-85
2023/12/18 05:22:20;;;;;;;22.08;13.32;;;;;;;;;;5262222;28;20031;-85
2023/12/18 05:24:51;;;;;;;15.10;11.24;;;;;;;;;;5263292;28;20024;-86
2023/12/18 05:27:22;;;;;;;17.35;11.32;;;;;;;;;;5262636;28;20049;-86
2023/12/18 05:29:54;;;;;;;21.00;11.68;;;;;;;;;;5262326;28;20036;-86
2023/12/18 05:32:25;;;;;;;21.20;12.07;;;;;;;;;;5262933;28;20017;-85
2023/12/18 05:34:56;;;;;;;19.13;10.70;;;;;;;;;;5263073;28;20020;-84
2023/12/18 05:37:28;;;;;;;18.00;11.95;;;;;;;;;;5261824;28;20033;-85
2023/12/18 05:39:59;;;;;;;18.33;12.82;;;;;;;;;;5262788;28;20016;-85
2023/12/18 05:42:30;;;;;;;21.08;11.95;;;;;;;;;;5263110;28;20040;-86
2023/12/18 05:45:02;;;;;;;15.90;11.73;;;;;;;;;;5262181;28;20017;-84
2023/12/18 05:47:33;;;;;;;20.52;12.77;;;;;;;;;;5262675;28;20016;-85
2023/12/18 05:50:04;;;;;;;19.10;11.77;;;;;;;;;;5262544;28;20163;-86
2023/12/18 05:52:36;;;;;;;17.20;10.77;;;;;;;;;;5262029;28;20021;-84
2023/12/18 05:55:09;;;;;;;18.85;12.25;;;;;;;;;;5262778;28;20013;-85
2023/12/18 05:57:41;;;;;;;20.08;11.82;;;;;;;;;;5267164;28;20033;-85
2023/12/18 06:00:12;;;;;;;18.83;11.68;;;;;;;;;;5264061;28;20100;-85
2023/12/18 06:02:44;;;;;;;20.25;11.50;;;;;;;;;;5262477;28;20483;-84
2023/12/18 06:05:15;;;;;;;17.08;12.10;;;;;;;;;;5261803;28;20024;-86
2023/12/18 06:07:46;;;;;;;20.92;11.85;;;;;;;;;;5262456;28;20020;-85
2023/12/18 06:10:17;;;;;;;23.40;12.65;;;;;;;;;;5262103;28;20050;-85
2023/12/18 06:12:51;;;;;;;18.58;12.02;;;;;;;;;;5261847;28;20491;-85
2023/12/18 06:15:22;;;;;;;20.15;12.68;;;;;;;;;;5261993;28;20021;-85
2023/12/18 06:17:53;;;;;;;19.48;12.38;;;;;;;;;;5262536;28;20044;-84
2023/12/18 06:20:24;;;;;;;18.98;11.15;;;;;;;;;;5260997;28;20020;-85
2023/12/18 06:22:55;;;;;;;18.08;11.80;;;;;;;;;;5262432;28;20067;-85
2023/12/18 06:25:27;;;;;;;18.67;12.15;;;;;;;;;;5261426;28;20072;-85
2023/12/18 06:27:58;;;;;;;18.67;11.05;;;;;;;;;;5261282;28;20025;-85
2023/12/18 06:30:29;;;;;;;22.75;11.65;;;;;;;;;;5261754;28;20415;-85
2023/12/18 06:33:00;;;;;;;19.33;11.88;;;;;;;;;;5261087;28;20499;-86
2023/12/18 06:35:31;;;;;;;17.90;11.18;;;;;;;;;;5261540;28;20025;-85
2023/12/18 06:38:04;;;;;;;20.77;11.75;;;;;;;;;;5261680;28;20117;-85
2023/12/18 06:40:35;;;;;;;16.88;11.50;;;;;;;;;;5261066;28;20028;-85
2023/12/18 06:43:07;;;;;;;16.77;11.40;;;;;;;;;;5261652;28;20033;-85
2023/12/18 06:45:38;;;;;;;17.30;11.10;;;;;;;;;;5261585;28;20025;-85
2023/12/18 06:48:10;;;;;;;17.83;11.32;;;;;;;;;;5260958;28;20024;-86
2023/12/18 06:50:42;;;;;;;18.08;12.05;;;;;;;;;;5261792;28;20021;-85
2023/12/18 06:53:13;;;;;;;21.63;12.00;;;;;;;;;;5261631;28;20016;-85
2023/12/18 06:55:44;;;;;;;20.00;12.02;;;;;;;;;;5260801;28;20036;-84
2023/12/18 06:58:16;;;;;;;19.27;12.70;;;;;;;;;;5261861;28;20037;-85
2023/12/18 07:00:47;;;;;;;20.83;12.95;;;;;;;;;;5260640;28;20021;-84
2023/12/18 07:03:18;;;;;;;18.48;11.82;;;;;;;;;;5261748;28;20029;-85
2023/12/18 07:05:50;;;;;;;19.98;12.90;;;;;;;;;;5261252;28;20029;-84
2023/12/18 07:08:21;;;;;;;22.90;13.35;;;;;;;;;;5261325;28;20464;-84
2023/12/18 07:10:52;;;;;;;17.15;12.52;;;;;;;;;;5261938;28;20056;-84
2023/12/18 07:13:24;;;;;;;21.05;12.70;;;;;;;;;;5261204;28;20021;-85
2023/12/18 07:15:55;;;;;;;19.27;12.07;;;;;;;;;;5261089;28;20021;-84
2023/12/18 07:18:26;;;;;;;19.60;12.40;;;;;;;;;;5260510;28;20074;-84
2023/12/18 07:20:57;;;;;;;20.92;12.23;;;;;;;;;;5261214;28;20029;-85
2023/12/18 07:23:28;;;;;;;21.35;12.18;;;;;;;;;;5259596;28;20017;-84
2023/12/18 07:25:59;;;;;;;20.15;12.82;;;;;;;;;;5261548;28;20120;-85
2023/12/18 07:28:31;;;;;;;20.95;13.30;;;;;;;;;;5260865;28;20039;-85
2023/12/18 07:31:02;;;;;;;20.75;13.43;;;;;;;;;;5260313;28;20501;-86
2023/12/18 07:33:35;;;;;;;18.83;11.73;;;;;;;;;;5261073;28;20021;-85
2023/12/18 07:36:06;;;;;;;20.05;12.43;;;;;;;;;;5260196;28;20025;-85
2023/12/18 07:38:37;;;;;;;18.50;12.15;;;;;;;;;;5261011;28;20476;-84
2023/12/18 07:41:09;;;;;;;24.08;13.35;;;;;;;;;;5261116;28;20102;-85
2023/12/18 07:43:40;;;;;;;20.73;12.85;;;;;;;;;;5259835;28;20056;-86
2023/12/18 07:46:21;;;;;;;22.67;11.70;;;;;;;;;;5260592;28;20100;-85
2023/12/18 07:48:53;;;;;;;21.10;13.07;;;;;;;;;;5261241;28;20139;-86
2023/12/18 07:51:24;;;;;;;17.65;12.18;;;;;;;;;;5262014;28;20052;-83
2023/12/18 07:53:55;;;;;;;23.42;13.54;;;;;;;;;;5262339;28;20013;-85
2023/12/18 07:56:26;;;;;;;21.13;13.05;;;;;;;;;;5260627;28;20108;-85
2023/12/18 07:58:58;;;;;;;18.02;12.27;;;;;;;;;;5259917;28;20404;-85
2023/12/18 08:01:29;;;;;;;18.42;12.60;;;;;;;;;;5260402;28;20036;-85
2023/12/18 08:04:00;;;;;;;20.33;12.95;;;;;;;;;;5260027;28;20025;-86
2023/12/18 08:06:31;;;;;;;23.27;13.25;;;;;;;;;;5260412;28;20108;-85
2023/12/18 08:09:02;;;;;;;21.05;13.10;;;;;;;;;;5259831;28;20375;-84
2023/12/18 08:11:34;;;;;;;17.63;12.70;;;;;;;;;;5259728;28;20127;-85
2023/12/18 08:14:05;;;;;;;21.13;12.50;;;;;;;;;;5260833;28;20052;-84
2023/12/18 08:16:36;;;;;;;21.13;13.35;;;;;;;;;;5260553;28;20040;-84
2023/12/18 08:19:08;;;;;;;20.75;12.80;;;;;;;;;;5259624;28;20055;-85
2023/12/18 08:21:39;;;;;;;20.65;12.05;;;;;;;;;;5260455;28;20040;-86
2023/12/18 08:24:10;;;;;;;22.15;11.95;;;;;;;;;;5260798;28;20064;-84
2023/12/18 08:26:41;;;;;;;25.92;12.57;;;;;;;;;;5259746;28;20053;-84
2023/12/18 08:29:13;;;;;;;21.70;13.77;;;;;;;;;;5260379;28;20056;-85
2023/12/18 08:31:44;;;;;;;17.15;11.95;;;;;;;;;;5260080;28;20025;-84
2023/12/18 08:34:15;;;;;;;21.48;12.80;;;;;;;;;;5261627;28;20025;-84
2023/12/18 08:36:46;;;;;;;18.35;12.20;;;;;;;;;;5264033;28;20431;-85
2023/12/18 08:39:17;;;;;;;16.35;12.50;;;;;;;;;;5263169;28;20021;-82
2023/12/18 08:41:49;;;;;;;28.65;13.20;;;;;;;;;;5263905;28;20104;-83
2023/12/18 08:44:20;;;;;;;20.52;11.25;;;;;;;;;;5263701;28;20025;-78
2023/12/18 08:46:51;;;;;;;21.13;12.50;;;;;;;;;;5262945;28;20096;-83
2023/12/18 08:49:22;;;;;;;23.58;12.45;;;;;;;;;;5263312;28;20123;-81
2023/12/18 08:51:53;;;;;;;22.27;13.43;;;;;;;;;;5263513;28;20025;-82
2023/12/18 08:54:25;;;;;;;22.48;12.50;;;;;;;;;;5262452;28;20021;-82
2023/12/18 08:56:56;;;;;;;23.00;14.30;;;;;;;;;;5263402;28;20031;-82
2023/12/18 08:59:27;;;;;;;16.17;11.32;;;;;;;;;;5263422;28;20017;-82
2023/12/18 09:01:59;;;;;;;19.77;12.75;;;;;;;;;;5262912;28;20376;-81
2023/12/18 09:04:30;;;;;;;17.95;12.20;;;;;;;;;;5263370;28;20021;-82
2023/12/18 09:07:01;;;;;;;20.55;12.93;;;;;;;;;;5263551;28;20040;-81
2023/12/18 09:09:32;;;;;;;25.48;13.88;;;;;;;;;;5262304;28;20025;-82
2023/12/18 09:12:04;;;;;;;19.67;12.40;;;;;;;;;;5263173;28;20025;-82
2023/12/18 09:14:35;;;;;;;20.48;12.55;;;;;;;;;;5262652;28;20024;-81
2023/12/18 09:17:06;;;;;;;20.67;11.63;;;;;;;;;;5263237;28;20040;-81
2023/12/18 09:19:38;;;;;;;21.73;12.38;;;;;;;;;;5263138;28;20025;-82
2023/12/18 09:22:09;;;;;;;21.52;13.10;;;;;;;;;;5262328;28;20025;-82
2023/12/18 09:24:40;;;;;;;25.23;12.20;;;;;;;;;;5262968;28;20379;-81
2023/12/18 09:27:11;;;;;;;17.52;12.27;;;;;;;;;;5262970;28;20060;-81
2023/12/18 09:29:42;;;;;;;22.85;13.68;;;;;;;;;;5262405;28;20490;-82
2023/12/18 09:32:13;;;;;;;20.92;12.95;;;;;;;;;;5262774;28;20064;-81
2023/12/18 09:34:45;;;;;;;18.13;12.13;;;;;;;;;;5262601;28;20021;-82
2023/12/18 09:37:16;;;;;;;19.17;11.93;;;;;;;;;;5262306;28;20037;-82
2023/12/18 09:39:47;;;;;;;21.02;12.70;;;;;;;;;;5262823;28;20021;-82
2023/12/18 09:42:18;;;;;;;22.73;13.18;;;;;;;;;;5262907;28;20047;-80
2023/12/18 09:44:49;;;;;;;18.92;11.93;;;;;;;;;;5261533;28;20019;-84
2023/12/18 09:47:21;;;;;;;25.88;13.05;;;;;;;;;;5262335;28;20119;-78
2023/12/18 09:49:54;;;;;;;18.25;11.23;;;;;;;;;;5262466;28;20028;-79
2023/12/18 09:52:27;;;;;;;18.77;11.90;;;;;;;;;;5262693;28;20017;-78
2023/12/18 09:54:59;;;;;;;19.58;12.13;;;;;;;;;;5262596;28;20064;-79
2023/12/18 09:57:31;;;;;;;18.35;11.75;;;;;;;;;;5261454;28;20021;-78
2023/12/18 10:00:06;;;;;;;23.45;13.05;;;;;;;;;;5262033;28;20131;-78
2023/12/18 10:02:38;;;;;;;22.23;12.45;;;;;;;;;;5262616;28;20372;-79
2023/12/18 10:05:09;;;;;;;17.40;11.70;;;;;;;;;;5261382;28;20017;-78
2023/12/18 10:07:40;;;;;;;18.45;11.82;;;;;;;;;;5262050;28;20032;-77
2023/12/18 10:10:11;;;;;;;21.58;12.20;;;;;;;;;;5262134;28;20021;-78
2023/12/18 10:12:42;;;;;;;19.67;12.43;;;;;;;;;;5261328;28;20019;-80
2023/12/18 10:15:16;;;;;;;19.02;12.00;;;;;;;;;;5262423;28;20060;-80
2023/12/18 10:17:48;;;;;;;19.77;12.18;;;;;;;;;;5261017;28;20029;-80
2023/12/18 10:20:19;;;;;;;20.73;12.75;;;;;;;;;;5261908;28;20360;-80
2023/12/18 10:22:50;;;;;;;19.20;12.10;;;;;;;;;;5261746;28;20435;-78
2023/12/18 10:25:22;;;;;;;18.63;11.95;;;;;;;;;;5260948;28;20068;-78
2023/12/18 10:27:54;;;;;;;21.17;12.20;;;;;;;;;;5262272;28;20163;-81
2023/12/18 10:30:27;;;;;;;23.23;13.02;;;;;;;;;;5261455;28;20103;-79
2023/12/18 10:33:03;;;;;;;24.60;12.20;;;;;;;;;;5261452;28;20468;-80
2023/12/18 10:35:34;;;;;;;18.77;11.90;;;;;;;;;;5261858;28;20128;-80
2023/12/18 10:38:06;;;;;;;17.92;12.73;;;;;;;;;;5261448;28;20108;-80
2023/12/18 10:40:37;;;;;;;20.77;13.25;;;;;;;;;;5260796;28;20017;-79
2023/12/18 10:43:12;;;;;;;18.80;11.88;;;;;;;;;;5261381;28;20078;-82
2023/12/18 10:45:44;;;;;;;20.13;12.02;;;;;;;;;;5261320;28;20479;-81
2023/12/18 10:48:17;;;;;;;19.60;12.07;;;;;;;;;;5261321;28;21002;-79
2023/12/18 10:50:50;;;;;;;22.50;12.55;;;;;;;;;;5261505;28;20429;-81
2023/12/18 10:53:22;;;;;;;18.58;12.23;;;;;;;;;;5260087;28;20025;-81
2023/12/18 10:55:54;;;;;;;19.98;11.80;;;;;;;;;;5261436;28;20021;-80
2023/12/18 10:58:26;;;;;;;18.85;12.77;;;;;;;;;;5260180;28;20047;-80
2023/12/18 11:00:57;;;;;;;17.13;11.52;;;;;;;;;;5260550;28;20009;-81
2023/12/18 11:03:29;;;;;;;17.58;10.77;;;;;;;;;;5261661;28;20405;-81
2023/12/18 11:06:01;;;;;;;17.08;11.23;;;;;;;;;;5261477;28;20024;-81
2023/12/18 11:08:32;;;;;;;21.60;11.27;;;;;;;;;;5260384;28;20100;-81
2023/12/18 11:11:05;;;;;;;23.75;12.40;;;;;;;;;;5260992;28;20029;-81
2023/12/18 11:13:55;;;;;;;18.38;11.27;;;;;;;;;;5261205;28;20028;-81
2023/12/18 11:16:39;;;;;;;17.42;11.65;;;;;;;;;;5260766;28;20017;-81
2023/12/18 11:19:10;;;;;;;18.75;12.32;;;;;;;;;;5261278;28;20040;-83
2023/12/18 11:21:41;;;;;;;14.56;11.12;;;;;;;;;;5260099;28;20021;-84
2023/12/18 11:24:12;;;;;;;19.83;11.50;;;;;;;;;;5260725;28;20372;-83
2023/12/18 11:26:45;;;;;;;26.88;11.90;;;;;;;;;;5260745;28;20184;-85
2023/12/18 11:29:32;;;;;;;19.05;12.98;;;;;;;;;;5260014;28;20033;-85
2023/12/18 11:32:04;;;;;;;20.17;11.48;;;;;;;;;;5260820;28;20031;-82
2023/12/18 11:34:35;;;;;;;16.67;11.20;;;;;;;;;;5260902;28;20017;-84
2023/12/18 11:37:07;;;;;;;20.00;10.40;;;;;;;;;;5260026;28;20064;-86
2023/12/18 11:39:39;;;;;;;18.10;12.05;;;;;;;;;;5261113;28;20086;-84
2023/12/18 11:42:10;;;;;;;16.15;10.82;;;;;;;;;;5261248;28;20025;-85
2023/12/18 11:44:42;;;;;;;16.08;10.73;;;;;;;;;;5265207;28;20021;-82
2023/12/18 11:47:13;;;;;;;18.73;10.70;;;;;;;;;;5264140;28;20018;-83
2023/12/18 11:49:44;;;;;;;15.38;9.98;;;;;;;;;;5260174;28;20472;-83
2023/12/18 11:52:17;;;;;;;17.63;9.88;;;;;;;;;;5260462;28;20017;-83
2023/12/18 11:54:48;;;;;;;20.58;10.98;;;;;;;;;;5260950;28;20487;-80
2023/12/18 11:57:20;;;;;;;16.75;10.18;;;;;;;;;;5260206;28;20041;-84
2023/12/18 11:59:51;;;;;;;14.30;9.50;;;;;;;;;;5260903;28;20012;-86
2023/12/18 12:02:23;;;;;;;17.58;10.02;;;;;;;;;;5259701;28;20372;-82
2023/12/18 12:04:56;;;;;;;14.02;9.32;;;;;;;;;;5259794;28;20024;-83
2023/12/18 12:07:27;;;;;;;13.45;9.95;;;;;;;;;;5260332;28;20464;-84
2023/12/18 12:09:59;;;;;;;17.48;9.75;;;;;;;;;;5263705;28;20013;-83
2023/12/18 12:12:30;;;;;;;14.23;9.45;;;;;;;;;;5263626;28;20060;-84
2023/12/18 12:15:01;;;;;;;16.02;9.43;;;;;;;;;;5264336;28;20483;-83
2023/12/18 12:17:32;;;;;;;15.45;8.85;;;;;;;;;;5263614;28;20467;-85
2023/12/18 12:20:07;;;;;;;14.35;8.57;;;;;;;;;;5264509;28;20140;-84
2023/12/18 12:22:38;;;;;;;12.77;8.90;;;;;;;;;;5264297;28;20020;-82
2023/12/18 12:25:10;;;;;;;12.57;8.48;;;;;;;;;;5263127;28;20040;-83
2023/12/18 12:27:41;;;;;;;13.75;8.32;;;;;;;;;;5264166;28;20033;-82
2023/12/18 12:30:12;;;;;;;13.07;8.13;;;;;;;;;;5264230;28;20052;-84
2023/12/18 12:32:47;;;;;;;13.35;8.82;;;;;;;;;;5262916;28;20024;-81
2023/12/18 12:35:18;;;;;;;11.88;8.45;;;;;;;;;;5264245;28;20557;-80
2023/12/18 12:37:50;;;;;;;13.07;8.20;;;;;;;;;;5263783;28;20063;-83
2023/12/18 12:40:21;;;;;;;13.82;9.15;;;;;;;;;;5262686;28;20075;-82
2023/12/18 12:42:52;;;;;;;12.45;8.57;;;;;;;;;;5264150;28;20031;-86
2023/12/18 12:45:24;;;;;;;14.23;8.15;;;;;;;;;;5262884;28;20415;-84
2023/12/18 12:47:58;;;;;;;11.93;8.38;;;;;;;;;;5264143;28;20021;-84
2023/12/18 12:50:29;;;;;;;14.20;9.13;;;;;;;;;;5263557;28;20487;-84
2023/12/18 12:53:01;;;;;;;13.85;8.80;;;;;;;;;;5263269;28;20028;-82
2023/12/18 12:55:32;;;;;;;14.50;8.48;;;;;;;;;;5252863;28;20028;-82
2023/12/18 12:58:03;;;;;;;15.32;8.60;;;;;;;;;;5256317;28;20040;-86
2023/12/18 13:00:35;;;;;;;13.63;9.23;;;;;;;;;;5261035;28;20032;-84
2023/12/18 13:03:06;;;;;;;15.18;8.75;;;;;;;;;;5261933;28;20419;-84
2023/12/18 13:05:37;;;;;;;13.05;9.10;;;;;;;;;;5261029;28;20483;-85
2023/12/18 13:08:09;;;;;;;12.25;8.02;;;;;;;;;;5261289;28;20032;-83
2023/12/18 13:10:40;;;;;;;16.02;7.88;;;;;;;;;;5261458;28;20512;-85
2023/12/18 13:13:12;;;;;;;13.23;8.35;;;;;;;;;;5262668;28;20025;-85
2023/12/18 13:15:43;;;;;;;12.35;8.45;;;;;;;;;;5260454;28;20025;-84
2023/12/18 13:18:17;;;;;;;12.80;8.70;;;;;;;;;;5239273;28;20445;-85
2023/12/18 13:20:48;;;;;;;14.80;8.45;;;;;;;;;;5239402;28;20028;-85
2023/12/18 13:23:21;;;;;;;11.20;8.10;;;;;;;;;;5241185;28;20033;-84
2023/12/18 13:25:52;;;;;;;12.50;7.95;;;;;;;;;;5254249;28;20416;-84
2023/12/18 13:28:23;;;;;;;14.35;7.88;;;;;;;;;;5259711;28;20036;-86
2023/12/18 13:30:54;;;;;;;13.77;8.88;;;;;;;;;;5260886;28;20021;-84
2023/12/18 13:33:25;;;;;;;16.92;8.73;;;;;;;;;;5261415;28;20033;-82
2023/12/18 13:35:56;;;;;;;17.23;8.98;;;;;;;;;;5259447;28;20349;-85
2023/12/18 13:38:28;;;;;;;13.43;8.15;;;;;;;;;;5260679;28;20052;-84
2023/12/18 13:40:59;;;;;;;11.30;7.90;;;;;;;;;;5260711;28;20032;-85
2023/12/18 13:43:30;;;;;;;18.48;8.50;;;;;;;;;;5260300;28;20027;-84
2023/12/18 13:46:01;;;;;;;11.75;8.40;;;;;;;;;;5261136;28;20017;-85
2023/12/18 13:48:32;;;;;;;11.90;7.93;;;;;;;;;;5262854;28;20013;-84
2023/12/18 13:51:04;;;;;;;13.10;7.93;;;;;;;;;;5260497;28;20489;-83
2023/12/18 13:53:35;;;;;;;12.45;7.88;;;;;;;;;;5262000;28;20036;-84
2023/12/18 13:56:07;;;;;;;16.75;8.48;;;;;;;;;;5260711;28;20029;-85
2023/12/18 13:58:39;;;;;;;13.45;7.65;;;;;;;;;;5261326;28;20496;-86
2023/12/18 14:01:11;;;;;;;16.83;8.38;;;;;;;;;;5261009;28;20032;-83
2023/12/18 14:03:42;;;;;;;14.07;8.52;;;;;;;;;;5260605;28;20025;-84
2023/12/18 14:06:13;;;;;;;11.55;7.95;;;;;;;;;;5261520;28;20013;-84
2023/12/18 14:08:44;;;;;;;14.18;8.18;;;;;;;;;;5261007;28;20025;-85
2023/12/18 14:11:16;;;;;;;13.98;8.52;;;;;;;;;;5259807;28;20468;-84
2023/12/18 14:13:47;;;;;;;15.48;8.02;;;;;;;;;;5261328;28;20357;-85
2023/12/18 14:16:18;;;;;;;13.77;7.93;;;;;;;;;;5261052;28;20025;-84
2023/12/18 14:18:53;;;;;;;12.15;7.43;;;;;;;;;;5260134;28;20026;-84
2023/12/18 14:21:25;;;;;;;11.95;7.95;;;;;;;;;;5260401;28;20013;-83
2023/12/18 14:23:57;;;;;;;16.73;7.53;;;;;;;;;;5260004;28;20045;-83
2023/12/18 14:26:29;;;;;;;12.88;8.55;;;;;;;;;;5260458;28;20123;-83
2023/12/18 14:29:00;;;;;;;16.33;8.05;;;;;;;;;;5261039;28;20021;-85
2023/12/18 14:31:32;;;;;;;14.40;8.57;;;;;;;;;;5260005;28;20095;-82
2023/12/18 14:34:03;;;;;;;16.42;10.18;;;;;;;;;;5261670;28;20013;-82
2023/12/18 14:36:34;;;;;;;15.35;8.52;;;;;;;;;;5263992;28;20439;-82
2023/12/18 14:39:05;;;;;;;15.77;9.15;;;;;;;;;;5260292;28;20040;-84
2023/12/18 14:41:36;;;;;;;16.20;8.60;;;;;;;;;;5260382;28;20021;-79
2023/12/18 14:44:08;;;;;;;12.50;8.20;;;;;;;;;;5260931;28;20092;-83
2023/12/18 14:46:39;;;;;;;14.77;7.80;;;;;;;;;;5260834;28;20145;-83
2023/12/18 14:49:10;;;;;;;11.77;8.40;;;;;;;;;;5261531;28;20024;-84